Time;durP1;ratioP1;P1;durP2;ratioP2;P2;SDS_P1;SDS_P2;PMS_P1;PMS_P2;Temp;Humidity;BMP_temperature;BMP_pressure;BME280_temperature;BME280_humidity;BME280_pressure;Samples;Min_cycle;Max_cycle;Signal;HPM_P1;HPM_P2
2022/11/30 00:00:04;;;;;;;16.85;8.52;;;5.00;99.90;;;;;;4970733;28;20041;-72
2022/11/30 00:02:37;;;;;;;19.08;10.70;;;5.00;99.90;;;;;;4968933;28;20146;-72
2022/11/30 00:05:03;;;;;;;18.30;9.70;;;5.10;99.90;;;;;;4966237;28;20102;-73
2022/11/30 00:07:29;;;;;;;18.77;10.00;;;5.10;99.90;;;;;;4965124;28;20039;-74
2022/11/30 00:09:55;;;;;;;17.77;10.93;;;5.00;99.90;;;;;;4964859;28;20039;-71
2022/11/30 00:12:21;;;;;;;18.60;10.40;;;5.00;99.90;;;;;;4966750;28;20134;-78
2022/11/30 00:14:47;;;;;;;17.98;9.73;;;5.00;99.90;;;;;;4977131;28;20031;-73
2022/11/30 00:17:13;;;;;;;15.65;8.43;;;5.10;99.90;;;;;;4971206;28;20126;-77
2022/11/30 00:19:39;;;;;;;18.73;9.63;;;5.00;99.90;;;;;;4977096;28;20019;-77
2022/11/30 00:22:05;;;;;;;18.08;9.30;;;5.10;99.90;;;;;;4978169;28;20033;-73
2022/11/30 00:24:31;;;;;;;22.20;12.20;;;5.10;99.90;;;;;;4974831;28;20466;-80
2022/11/30 00:26:56;;;;;;;20.92;10.48;;;5.00;99.90;;;;;;4978019;28;20038;-77
2022/11/30 00:29:22;;;;;;;21.73;11.43;;;5.00;99.90;;;;;;4972488;28;20031;-73
2022/11/30 00:31:48;;;;;;;21.90;11.82;;;5.00;99.90;;;;;;4975200;28;20102;-72
2022/11/30 00:34:14;;;;;;;20.95;10.43;;;5.10;99.90;;;;;;4974523;28;20546;-72
2022/11/30 00:36:43;;;;;;;18.58;9.82;;;5.10;99.90;;;;;;4974042;28;20025;-75
2022/11/30 00:39:09;;;;;;;16.63;8.93;;;5.10;99.90;;;;;;4978727;28;20486;-74
2022/11/30 00:41:35;;;;;;;16.95;9.20;;;5.10;99.90;;;;;;4981839;28;20031;-74
2022/11/30 00:44:01;;;;;;;17.13;9.20;;;5.20;99.90;;;;;;4981381;28;20027;-72
2022/11/30 00:46:26;;;;;;;17.48;8.98;;;5.20;99.90;;;;;;4976647;28;20069;-74
2022/11/30 00:48:52;;;;;;;17.48;9.85;;;5.20;99.90;;;;;;4978529;28;20033;-74
2022/11/30 00:51:19;;;;;;;20.00;8.98;;;5.20;99.90;;;;;;4978908;28;20631;-72
2022/11/30 00:53:46;;;;;;;17.40;9.15;;;5.20;99.90;;;;;;4975465;28;20542;-72
2022/11/30 00:56:12;;;;;;;16.92;7.72;;;5.20;99.90;;;;;;4976143;28;20035;-72
2022/11/30 00:58:38;;;;;;;16.95;9.80;;;5.30;99.90;;;;;;4975008;28;20472;-72
2022/11/30 01:01:05;;;;;;;17.73;8.70;;;5.30;99.90;;;;;;4970724;28;20114;-73
2022/11/30 01:03:31;;;;;;;21.83;10.75;;;5.30;99.90;;;;;;4974763;28;20374;-74
2022/11/30 01:06:05;;;;;;;15.30;8.88;;;5.30;99.90;;;;;;4975316;28;20031;-74
2022/11/30 01:08:32;;;;;;;13.05;8.07;;;5.30;99.90;;;;;;4975863;28;20053;-71
2022/11/30 01:11:08;;;;;;;14.07;7.13;;;5.30;99.90;;;;;;4975606;28;20022;-71
2022/11/30 01:13:34;;;;;;;21.98;11.13;;;5.30;99.90;;;;;;4970748;28;20027;-71
2022/11/30 01:15:59;;;;;;;18.73;9.65;;;5.30;99.90;;;;;;4974061;28;20077;-72
2022/11/30 01:18:25;;;;;;;18.75;9.00;;;5.30;99.90;;;;;;4974246;28;20034;-73
2022/11/30 01:20:51;;;;;;;16.73;8.45;;;5.30;99.90;;;;;;4974229;28;20019;-72
2022/11/30 01:23:17;;;;;;;16.60;8.88;;;5.40;99.90;;;;;;4973639;28;20864;-76
2022/11/30 01:25:52;;;;;;;15.75;8.63;;;5.40;99.90;;;;;;4972491;28;20520;-74
2022/11/30 01:28:18;;;;;;;19.23;8.73;;;5.40;99.90;;;;;;4974567;28;20109;-73
2022/11/30 01:30:44;;;;;;;15.75;8.05;;;5.30;99.90;;;;;;4972031;28;20030;-75
2022/11/30 01:33:10;;;;;;;16.17;8.60;;;5.30;99.90;;;;;;4969588;28;20029;-72
2022/11/30 01:35:36;;;;;;;17.23;9.20;;;5.30;99.90;;;;;;4972627;28;20034;-71
2022/11/30 01:38:02;;;;;;;13.40;7.68;;;5.30;99.90;;;;;;4961046;28;20035;-74
2022/11/30 01:40:27;;;;;;;17.98;9.38;;;5.30;99.90;;;;;;4967665;28;20062;-73
2022/11/30 01:42:54;;;;;;;16.52;8.70;;;5.40;99.90;;;;;;4964203;28;20085;-72
2022/11/30 01:45:20;;;;;;;15.40;8.60;;;5.40;99.90;;;;;;4972974;28;20023;-72
2022/11/30 01:47:50;;;;;;;14.70;8.23;;;5.40;99.90;;;;;;4973286;28;20050;-72
2022/11/30 01:50:22;;;;;;;15.90;8.90;;;5.40;99.90;;;;;;4966735;28;20078;-72
2022/11/30 01:52:54;;;;;;;17.55;7.47;;;5.40;99.90;;;;;;4970057;28;20030;-72
2022/11/30 01:55:33;;;;;;;14.50;7.43;;;5.50;99.90;;;;;;4969221;28;20089;-76
2022/11/30 01:58:06;;;;;;;14.98;7.07;;;5.50;99.90;;;;;;4972332;28;20114;-72
2022/11/30 02:00:32;;;;;;;14.30;7.22;;;5.50;99.90;;;;;;4971874;28;20027;-72
2022/11/30 02:03:11;;;;;;;14.27;7.18;;;5.50;99.90;;;;;;4970947;28;20129;-71
2022/11/30 02:05:41;;;;;;;12.57;7.10;;;5.40;99.90;;;;;;4971599;28;20038;-74
2022/11/30 02:08:10;;;;;;;12.93;6.68;;;5.50;99.90;;;;;;4971448;28;20066;-72
2022/11/30 02:10:39;;;;;;;14.95;7.95;;;5.50;99.90;;;;;;4972506;28;20389;-71
2022/11/30 02:13:24;;;;;;;13.15;7.47;;;5.50;99.90;;;;;;4967384;28;20043;-72
2022/11/30 02:16:05;;;;;;;14.23;7.25;;;5.60;99.90;;;;;;4970800;28;20034;-73
2022/11/30 02:18:58;;;;;;;18.42;8.25;;;5.50;99.90;;;;;;4974700;28;20509;-73
2022/11/30 02:21:36;;;;;;;12.13;6.93;;;5.50;99.90;;;;;;4962905;28;20058;-76
2022/11/30 02:24:18;;;;;;;16.42;8.52;;;5.60;99.90;;;;;;4972991;28;20027;-71
2022/11/30 02:27:04;;;;;;;16.70;8.23;;;5.50;99.90;;;;;;4974860;28;20062;-79
2022/11/30 02:29:49;;;;;;;13.40;7.30;;;5.60;99.90;;;;;;4972421;28;20025;-72
2022/11/30 02:32:22;;;;;;;13.35;7.50;;;5.60;99.90;;;;;;4975525;28;20047;-75
2022/11/30 02:34:49;;;;;;;12.45;6.97;;;5.60;99.90;;;;;;4975692;28;20019;-75
2022/11/30 02:37:16;;;;;;;16.35;6.85;;;5.60;99.90;;;;;;4959500;28;20031;-75
2022/11/30 02:39:43;;;;;;;14.65;7.30;;;5.60;99.90;;;;;;4976585;28;20023;-75
2022/11/30 02:42:11;;;;;;;13.57;7.55;;;5.60;99.90;;;;;;4972416;28;20093;-75
2022/11/30 02:44:39;;;;;;;16.27;8.18;;;5.70;99.90;;;;;;4967191;28;20093;-74
2022/11/30 02:47:14;;;;;;;17.90;9.20;;;5.60;99.90;;;;;;4971340;28;20031;-76
2022/11/30 02:50:06;;;;;;;16.08;9.50;;;5.50;99.90;;;;;;4972289;28;20018;-72
2022/11/30 02:52:32;;;;;;;19.63;9.65;;;5.50;99.90;;;;;;4970930;28;20037;-77
2022/11/30 02:55:01;;;;;;;16.02;9.00;;;5.40;99.90;;;;;;4972398;28;20031;-74
2022/11/30 02:57:27;;;;;;;18.48;10.43;;;5.40;99.90;;;;;;4974853;28;20077;-73
2022/11/30 02:59:53;;;;;;;20.83;10.32;;;5.30;99.90;;;;;;4974495;28;20027;-72
2022/11/30 03:02:19;;;;;;;19.50;11.02;;;5.40;99.90;;;;;;4973838;28;20470;-74
2022/11/30 03:04:44;;;;;;;19.90;11.35;;;5.40;99.90;;;;;;4975007;28;20034;-80
2022/11/30 03:07:10;;;;;;;20.92;11.68;;;5.30;99.90;;;;;;4973261;28;20050;-80
2022/11/30 03:09:36;;;;;;;24.58;13.73;;;5.30;99.90;;;;;;4971794;28;20058;-79
2022/11/30 03:12:02;;;;;;;20.63;12.32;;;5.30;99.90;;;;;;4973842;28;20031;-72
2022/11/30 03:14:28;;;;;;;22.88;13.20;;;5.30;99.90;;;;;;4974648;28;20026;-74
2022/11/30 03:16:54;;;;;;;25.33;13.70;;;5.40;99.90;;;;;;4971834;28;20031;-77
2022/11/30 03:19:19;;;;;;;27.38;16.00;;;5.30;99.90;;;;;;4974125;28;20088;-71
2022/11/30 03:21:45;;;;;;;23.77;13.55;;;5.40;99.90;;;;;;4975781;28;20359;-74
2022/11/30 03:24:11;;;;;;;24.75;14.15;;;5.30;99.90;;;;;;4976786;28;20493;-73
2022/11/30 03:26:37;;;;;;;22.20;12.85;;;5.30;99.90;;;;;;4985892;28;20474;-74
2022/11/30 03:29:03;;;;;;;25.25;13.95;;;5.30;99.90;;;;;;4971297;28;20025;-73
2022/11/30 03:31:32;;;;;;;27.65;15.88;;;5.30;99.90;;;;;;4973398;28;20181;-72
2022/11/30 03:33:58;;;;;;;23.40;14.30;;;5.30;99.90;;;;;;4970701;28;20106;-73
2022/11/30 03:36:24;;;;;;;23.42;13.63;;;5.30;99.90;;;;;;4975863;28;20026;-71
2022/11/30 03:38:50;;;;;;;23.92;13.63;;;5.40;99.90;;;;;;4974339;28;20026;-76
2022/11/30 03:41:16;;;;;;;25.77;14.20;;;5.40;99.90;;;;;;4978858;28;20481;-78
2022/11/30 03:43:43;;;;;;;24.48;14.45;;;5.40;99.90;;;;;;4978064;28;20023;-73
2022/11/30 03:46:10;;;;;;;22.15;12.80;;;5.40;99.90;;;;;;4977348;28;20179;-73
2022/11/30 03:48:36;;;;;;;28.38;13.55;;;5.40;99.90;;;;;;4977730;28;20015;-74
2022/11/30 03:51:04;;;;;;;23.05;13.73;;;5.40;99.90;;;;;;4976780;28;20066;-72
2022/11/30 03:53:30;;;;;;;23.95;13.82;;;5.40;99.90;;;;;;4976292;28;20101;-73
2022/11/30 03:55:59;;;;;;;24.10;13.80;;;5.40;99.90;;;;;;4977333;28;20038;-74
2022/11/30 03:58:26;;;;;;;21.95;13.60;;;5.40;99.90;;;;;;4987881;28;20521;-71
2022/11/30 04:01:09;;;;;;;23.08;12.95;;;5.50;99.90;;;;;;4970112;28;20031;-72
2022/11/30 04:03:35;;;;;;;25.80;15.00;;;5.40;99.90;;;;;;4970209;28;20039;-70
2022/11/30 04:06:02;;;;;;;25.15;13.82;;;5.50;99.90;;;;;;4979626;28;20043;-75
2022/11/30 04:08:28;;;;;;;23.15;13.68;;;5.50;99.90;;;;;;4978059;28;20023;-74
2022/11/30 04:10:56;;;;;;;24.60;13.35;;;5.40;99.90;;;;;;4972570;28;20019;-73
2022/11/30 04:13:23;;;;;;;24.83;12.77;;;5.40;99.90;;;;;;4971469;28;20030;-72
2022/11/30 04:15:51;;;;;;;26.60;14.07;;;5.40;99.90;;;;;;4975474;28;20037;-74
2022/11/30 04:18:18;;;;;;;25.30;14.07;;;5.40;99.90;;;;;;4972260;28;20034;-73
2022/11/30 04:20:44;;;;;;;24.95;13.80;;;5.40;99.90;;;;;;4975835;28;20027;-72
2022/11/30 04:23:11;;;;;;;26.70;13.95;;;5.50;99.90;;;;;;4977610;28;20014;-73
2022/11/30 04:25:38;;;;;;;23.05;14.10;;;5.50;99.90;;;;;;4978592;28;20039;-73
2022/11/30 04:28:04;;;;;;;26.13;14.27;;;5.50;99.90;;;;;;4983444;28;20034;-73
2022/11/30 04:30:32;;;;;;;27.70;14.35;;;5.40;99.90;;;;;;4979515;28;20037;-73
2022/11/30 04:32:58;;;;;;;25.88;15.88;;;5.40;99.90;;;;;;4978013;28;20051;-73
2022/11/30 04:35:24;;;;;;;26.63;13.50;;;5.40;99.90;;;;;;4978125;28;20062;-76
2022/11/30 04:37:50;;;;;;;27.48;16.00;;;5.40;99.90;;;;;;4975958;28;20030;-74
2022/11/30 04:40:16;;;;;;;28.25;15.90;;;5.30;99.90;;;;;;4976601;28;20049;-73
2022/11/30 04:42:43;;;;;;;25.35;14.75;;;5.30;99.90;;;;;;4977667;28;20046;-73
2022/11/30 04:45:09;;;;;;;26.42;15.82;;;5.30;99.90;;;;;;4977205;28;20093;-76
2022/11/30 04:47:35;;;;;;;23.92;14.63;;;5.30;99.90;;;;;;4976249;28;20062;-76
2022/11/30 04:50:01;;;;;;;28.42;16.13;;;5.30;99.90;;;;;;4976142;28;20035;-72
2022/11/30 04:52:27;;;;;;;24.70;14.73;;;5.30;99.90;;;;;;4975283;28;20026;-70
2022/11/30 04:54:53;;;;;;;23.58;14.13;;;5.30;99.90;;;;;;4974193;28;20066;-76
2022/11/30 04:57:19;;;;;;;23.90;13.68;;;5.40;99.90;;;;;;4974487;28;20488;-71
2022/11/30 04:59:44;;;;;;;24.20;13.55;;;5.40;99.90;;;;;;4975245;28;20058;-71
2022/11/30 05:02:10;;;;;;;25.63;14.27;;;5.40;99.90;;;;;;4976590;28;20083;-73
2022/11/30 05:04:36;;;;;;;21.77;13.35;;;5.40;99.90;;;;;;4974194;28;20038;-72
2022/11/30 05:07:02;;;;;;;24.88;13.50;;;5.40;99.90;;;;;;4973779;28;20053;-75
2022/11/30 05:09:28;;;;;;;26.80;15.30;;;5.50;99.90;;;;;;4961901;28;20023;-73
2022/11/30 05:11:54;;;;;;;25.98;15.50;;;5.40;99.90;;;;;;4974951;28;20088;-73
2022/11/30 05:14:20;;;;;;;38.67;19.90;;;5.40;99.90;;;;;;4974034;28;20384;-72
2022/11/30 05:16:47;;;;;;;32.78;18.15;;;5.40;99.90;;;;;;4971312;28;20031;-72
2022/11/30 05:19:13;;;;;;;29.13;18.15;;;5.40;99.90;;;;;;4986449;28;20082;-76
2022/11/30 05:21:40;;;;;;;24.80;14.93;;;5.50;99.90;;;;;;4974798;28;20035;-74
2022/11/30 05:24:06;;;;;;;28.90;16.70;;;5.50;99.90;;;;;;4972699;28;20023;-73
2022/11/30 05:26:33;;;;;;;31.30;18.63;;;5.50;99.90;;;;;;4969180;28;20027;-74
2022/11/30 05:28:59;;;;;;;26.60;17.45;;;5.40;99.90;;;;;;4964788;28;20136;-75
2022/11/30 05:31:25;;;;;;;27.77;15.73;;;5.40;99.90;;;;;;4972030;28;20054;-74
2022/11/30 05:33:52;;;;;;;28.73;16.52;;;5.50;99.90;;;;;;4973649;28;20089;-75
2022/11/30 05:36:18;;;;;;;25.77;16.13;;;5.50;99.90;;;;;;4973307;28;20457;-75
2022/11/30 05:38:45;;;;;;;25.65;15.25;;;5.50;99.90;;;;;;4973184;28;20058;-74
2022/11/30 05:41:11;;;;;;;29.67;17.55;;;5.50;99.90;;;;;;4961405;28;20214;-75
2022/11/30 05:43:36;;;;;;;24.23;14.70;;;5.50;99.90;;;;;;4970897;28;20022;-75
2022/11/30 05:46:04;;;;;;;24.85;14.57;;;5.50;99.90;;;;;;4964143;28;20047;-75
2022/11/30 05:48:30;;;;;;;21.98;12.75;;;5.50;99.90;;;;;;4970606;28;20036;-74
2022/11/30 05:51:08;;;;;;;27.08;16.23;;;5.50;99.90;;;;;;4970086;28;20488;-76
2022/11/30 05:53:34;;;;;;;22.48;13.93;;;5.50;99.90;;;;;;4973579;28;20068;-75
2022/11/30 05:56:06;;;;;;;26.10;17.23;;;5.50;99.90;;;;;;4973164;28;20031;-77
2022/11/30 05:58:32;;;;;;;20.85;12.27;;;5.50;99.90;;;;;;4968788;28;20026;-74
2022/11/30 06:00:58;;;;;;;24.05;14.80;;;5.50;99.90;;;;;;4972437;28;20030;-76
2022/11/30 06:03:24;;;;;;;23.23;14.63;;;5.50;99.90;;;;;;4972778;28;20047;-74
2022/11/30 06:05:51;;;;;;;22.75;13.48;;;5.50;99.90;;;;;;4972777;28;20520;-75
2022/11/30 06:08:19;;;;;;;24.25;12.35;;;5.50;99.90;;;;;;4974804;28;20030;-75
2022/11/30 06:10:45;;;;;;;21.50;12.30;;;5.50;99.90;;;;;;4973990;28;20031;-74
2022/11/30 06:13:11;;;;;;;19.05;11.80;;;5.50;99.90;;;;;;4973770;28;20043;-75
2022/11/30 06:15:38;;;;;;;22.15;13.63;;;5.50;99.90;;;;;;4973613;28;20023;-74
2022/11/30 06:18:04;;;;;;;22.58;12.05;;;5.50;99.90;;;;;;4973714;28;20054;-75
2022/11/30 06:20:30;;;;;;;22.50;12.05;;;5.50;99.90;;;;;;4973396;28;20023;-75
2022/11/30 06:22:57;;;;;;;21.55;13.43;;;5.60;99.90;;;;;;4974079;28;20037;-74
2022/11/30 06:25:24;;;;;;;24.83;14.40;;;5.60;99.90;;;;;;4973666;28;20078;-76
2022/11/30 06:27:50;;;;;;;20.02;11.18;;;5.60;99.90;;;;;;4973708;28;20081;-75
2022/11/30 06:30:16;;;;;;;20.02;11.13;;;5.60;99.90;;;;;;4973483;28;20019;-75
2022/11/30 06:32:46;;;;;;;21.15;12.98;;;5.60;99.90;;;;;;4972913;28;20031;-73
2022/11/30 06:35:13;;;;;;;15.27;8.50;;;5.60;99.90;;;;;;4972708;28;20042;-75
2022/11/30 06:37:39;;;;;;;17.00;9.48;;;5.70;99.90;;;;;;4971389;28;20046;-76
2022/11/30 06:40:05;;;;;;;18.75;9.88;;;5.70;99.90;;;;;;4969306;28;20085;-74
2022/11/30 06:42:32;;;;;;;14.55;8.35;;;5.80;99.90;;;;;;4960590;28;20043;-74
2022/11/30 06:44:58;;;;;;;14.27;7.50;;;5.80;99.90;;;;;;4972614;28;20035;-74
2022/11/30 06:47:24;;;;;;;11.00;6.03;;;5.80;99.90;;;;;;4959291;28;20031;-74
2022/11/30 06:49:50;;;;;;;11.98;6.18;;;5.80;99.90;;;;;;4972373;28;20516;-75
2022/11/30 06:52:16;;;;;;;12.75;6.30;;;5.80;99.90;;;;;;4968058;28;20042;-73
2022/11/30 06:54:42;;;;;;;12.35;5.90;;;5.90;99.90;;;;;;4953587;28;20035;-73
2022/11/30 06:57:08;;;;;;;10.90;5.50;;;5.90;99.90;;;;;;4967260;28;20034;-74
2022/11/30 06:59:36;;;;;;;11.52;5.82;;;5.90;99.90;;;;;;4971126;28;20018;-74
2022/11/30 07:02:02;;;;;;;7.80;3.88;;;5.90;99.90;;;;;;4954921;28;20035;-75
2022/11/30 07:04:28;;;;;;;9.43;5.03;;;6.00;99.90;;;;;;4971042;28;20104;-74
2022/11/30 07:06:55;;;;;;;8.18;4.25;;;6.00;99.90;;;;;;4965071;28;20090;-75
2022/11/30 07:09:21;;;;;;;10.07;4.18;;;6.00;99.90;;;;;;4970100;28;20403;-75
2022/11/30 07:11:46;;;;;;;8.60;3.35;;;6.10;99.90;;;;;;4972386;28;20025;-74
2022/11/30 07:14:12;;;;;;;8.25;4.32;;;6.10;99.90;;;;;;4971766;28;20023;-74
2022/11/30 07:16:38;;;;;;;7.60;3.72;;;6.10;99.90;;;;;;4972010;28;20022;-75
2022/11/30 07:19:04;;;;;;;8.35;3.95;;;6.20;99.90;;;;;;4968449;28;20034;-74
2022/11/30 07:21:30;;;;;;;5.43;2.40;;;6.20;99.90;;;;;;4972633;28;20394;-74
2022/11/30 07:26:40;;;;;;;8.65;3.40;;;6.30;99.90;;;;;;4968895;28;20042;-77
2022/11/30 07:29:06;;;;;;;7.10;3.72;;;6.30;99.90;;;;;;4972133;28;20023;-75
2022/11/30 07:31:33;;;;;;;3.92;2.50;;;6.40;99.90;;;;;;4971768;28;20429;-74
2022/11/30 07:34:05;;;;;;;4.13;2.85;;;6.40;99.90;;;;;;4971114;28;20058;-75
2022/11/30 07:36:32;;;;;;;2.87;1.93;;;6.40;99.90;;;;;;4970367;28;20031;-77
2022/11/30 07:38:57;;;;;;;3.17;1.92;;;6.50;99.90;;;;;;4971674;28;20265;-73
2022/11/30 07:41:23;;;;;;;3.05;2.22;;;6.50;99.90;;;;;;4971275;28;20023;-73
2022/11/30 07:43:49;;;;;;;3.22;1.10;;;6.50;99.90;;;;;;4970818;28;20054;-73
2022/11/30 07:46:16;;;;;;;3.08;1.33;;;6.60;99.90;;;;;;4971310;28;20485;-73
2022/11/30 07:48:43;;;;;;;1.67;1.30;;;6.60;99.90;;;;;;4971428;28;20031;-72
2022/11/30 07:51:20;;;;;;;4.07;2.42;;;6.60;99.90;;;;;;4972253;28;20042;-77
2022/11/30 07:53:47;;;;;;;6.07;2.33;;;6.60;99.90;;;;;;4972365;28;20031;-74
2022/11/30 07:56:20;;;;;;;6.95;2.80;;;6.60;99.90;;;;;;4972109;28;20031;-72
2022/11/30 07:58:47;;;;;;;6.90;3.13;;;6.60;99.90;;;;;;4971073;28;20054;-73
2022/11/30 08:01:15;;;;;;;7.43;2.63;;;6.70;99.90;;;;;;4971450;28;20031;-73
2022/11/30 08:03:41;;;;;;;6.95;3.03;;;6.70;99.90;;;;;;4969501;28;20063;-74
2022/11/30 08:06:10;;;;;;;5.88;2.55;;;6.80;99.90;;;;;;4971385;28;20121;-77
2022/11/30 08:08:39;;;;;;;6.78;3.38;;;6.80;99.90;;;;;;4968630;28;20062;-74
2022/11/30 08:11:06;;;;;;;3.50;2.00;;;6.80;99.90;;;;;;4971817;28;20023;-73
2022/11/30 08:13:32;;;;;;;4.70;1.50;;;6.80;99.90;;;;;;4971989;28;20475;-73
2022/11/30 08:16:07;;;;;;;5.50;2.60;;;6.90;99.90;;;;;;4969148;28;20035;-73
2022/11/30 08:18:33;;;;;;;4.97;1.60;;;6.90;99.90;;;;;;4970718;28;20027;-73
2022/11/30 08:21:00;;;;;;;3.53;2.03;;;6.90;99.90;;;;;;4972060;28;20092;-74
2022/11/30 08:23:35;;;;;;;4.65;2.33;;;6.90;99.90;;;;;;4970094;28;20030;-72
2022/11/30 08:26:29;;;;;;;3.03;1.73;;;6.90;99.90;;;;;;4969632;28;20118;-73
2022/11/30 08:28:56;;;;;;;2.05;1.10;;;7.00;99.90;;;;;;4969184;28;20401;-74
2022/11/30 08:31:25;;;;;;;5.72;3.35;;;7.00;99.90;;;;;;4971539;28;20428;-75
2022/11/30 08:33:56;;;;;;;6.53;3.15;;;7.00;99.90;;;;;;4971070;28;20038;-72
2022/11/30 08:36:24;;;;;;;4.75;2.42;;;7.20;99.90;;;;;;4972050;28;20034;-75
2022/11/30 08:38:50;;;;;;;3.78;2.03;;;7.20;99.90;;;;;;4971106;28;20051;-74
2022/11/30 08:41:18;;;;;;;2.92;1.63;;;7.20;99.90;;;;;;4968257;28;20041;-73
2022/11/30 08:43:44;;;;;;;2.05;1.60;;;7.30;99.90;;;;;;4968754;28;20647;-74
2022/11/30 08:46:12;;;;;;;4.10;2.33;;;7.30;99.90;;;;;;4971122;28;20043;-74
2022/11/30 08:48:38;;;;;;;3.58;2.40;;;7.30;99.90;;;;;;4960264;28;20030;-72
2022/11/30 08:51:06;;;;;;;2.92;1.80;;;7.30;99.90;;;;;;4967491;28;20039;-73
2022/11/30 08:53:33;;;;;;;3.63;1.98;;;7.40;99.90;;;;;;4968971;28;20023;-74
2022/11/30 08:56:01;;;;;;;4.50;1.35;;;7.40;99.90;;;;;;4971628;28;20046;-72
2022/11/30 08:58:30;;;;;;;3.90;1.58;;;7.50;99.90;;;;;;4972275;28;20027;-75
2022/11/30 09:01:05;;;;;;;4.68;1.67;;;7.50;99.90;;;;;;4973989;28;20043;-76
2022/11/30 09:03:31;;;;;;;3.75;1.67;;;7.50;99.90;;;;;;4968060;28;20059;-77
2022/11/30 09:06:04;;;;;;;4.03;2.15;;;7.50;99.90;;;;;;4974690;28;20049;-73
2022/11/30 09:08:31;;;;;;;6.97;3.28;;;7.60;99.90;;;;;;4973862;28;20030;-77
2022/11/30 09:10:57;;;;;;;8.27;2.80;;;7.50;99.90;;;;;;4973866;28;20397;-71
2022/11/30 09:13:22;;;;;;;5.78;2.90;;;7.60;99.90;;;;;;4973376;28;20488;-74
2022/11/30 09:15:55;;;;;;;3.47;1.60;;;7.60;99.90;;;;;;4971361;28;20023;-73
2022/11/30 09:18:21;;;;;;;2.95;1.95;;;7.60;99.90;;;;;;4971050;28;20034;-71
2022/11/30 09:20:47;;;;;;;2.40;1.45;;;7.50;99.90;;;;;;4974589;28;20107;-72
2022/11/30 09:23:12;;;;;;;4.43;2.50;;;7.70;99.90;;;;;;4969828;28;20477;-75
2022/11/30 09:25:38;;;;;;;7.72;3.10;;;7.70;99.90;;;;;;4968191;28;20019;-73
2022/11/30 09:28:04;;;;;;;4.53;1.90;;;7.80;99.90;;;;;;4977795;28;20546;-74
2022/11/30 09:30:30;;;;;;;5.60;2.92;;;7.60;99.90;;;;;;4971696;28;20058;-74
2022/11/30 09:32:58;;;;;;;7.32;3.08;;;7.80;99.90;;;;;;4974714;28;20073;-73
2022/11/30 09:35:24;;;;;;;4.80;2.80;;;8.00;99.90;;;;;;4974400;28;20023;-73
2022/11/30 09:37:51;;;;;;;5.20;2.80;;;7.90;99.90;;;;;;4968422;28;20109;-72
2022/11/30 09:40:18;;;;;;;7.88;3.03;;;7.80;99.90;;;;;;4974082;28;20023;-73
2022/11/30 09:43:09;;;;;;;3.90;1.92;;;7.70;99.90;;;;;;4974151;28;20058;-74
2022/11/30 09:45:36;;;;;;;8.57;3.53;;;7.60;99.90;;;;;;4971185;28;20486;-73
2022/11/30 09:48:28;;;;;;;15.52;8.90;;;7.80;99.90;;;;;;4964378;28;20030;-74
2022/11/30 09:50:57;;;;;;;8.60;5.20;;;7.80;99.90;;;;;;4954495;28;20460;-75
2022/11/30 09:53:39;;;;;;;13.43;6.57;;;7.80;99.90;;;;;;4974303;28;20508;-74
2022/11/30 09:56:18;;;;;;;6.80;3.30;;;7.80;99.90;;;;;;4972340;28;20531;-74
2022/11/30 09:58:49;;;;;;;12.38;5.43;;;7.90;99.90;;;;;;4972951;28;20140;-74
2022/11/30 10:01:18;;;;;;;5.63;3.08;;;7.90;99.90;;;;;;4970904;28;20466;-73
2022/11/30 10:03:44;;;;;;;8.48;3.72;;;7.80;99.90;;;;;;4968417;28;20119;-73
2022/11/30 10:06:43;;;;;;;5.65;2.65;;;7.80;99.90;;;;;;4970850;28;20031;-74
2022/11/30 10:09:47;;;;;;;5.13;3.03;;;7.90;99.90;;;;;;4964144;28;20043;-74
2022/11/30 10:12:26;;;;;;;6.10;2.03;;;7.90;99.90;;;;;;4949142;28;20485;-72
2022/11/30 10:15:03;;;;;;;5.13;2.50;;;7.80;99.90;;;;;;4948522;28;20793;-72
2022/11/30 10:17:52;;;;;;;7.43;2.88;;;7.80;99.90;;;;;;4946988;29;20559;-72
2022/11/30 10:20:59;;;;;;;4.38;1.98;;;7.80;99.90;;;;;;4951441;28;20592;-73
2022/11/30 10:23:53;;;;;;;5.32;2.72;;;7.80;99.90;;;;;;4854727;29;20116;-73
2022/11/30 10:26:34;;;;;;;6.20;2.53;;;7.90;99.90;;;;;;4848402;29;20394;-72
2022/11/30 10:29:37;;;;;;;5.68;2.10;;;7.90;99.90;;;;;;4857313;29;20045;-74
2022/11/30 10:32:19;;;;;;;4.20;2.70;;;8.00;99.90;;;;;;4838512;29;20402;-73
2022/11/30 10:34:54;;;;;;;8.65;3.28;;;7.90;99.90;;;;;;4835838;29;20134;-74
2022/11/30 10:37:35;;;;;;;8.88;3.13;;;7.90;99.90;;;;;;4841085;29;20108;-72
2022/11/30 10:40:04;;;;;;;7.05;3.13;;;7.80;99.90;;;;;;4837912;29;20034;-70
2022/11/30 10:42:43;;;;;;;9.73;4.15;;;7.80;99.90;;;;;;4838338;29;20113;-73
2022/11/30 10:45:12;;;;;;;7.50;3.50;;;7.90;99.90;;;;;;4837913;29;20113;-73
2022/11/30 10:47:47;;;;;;;7.88;3.78;;;8.00;99.90;;;;;;4837151;29;20157;-72
2022/11/30 10:50:15;;;;;;;6.47;2.80;;;8.00;99.90;;;;;;4853602;29;20046;-72
2022/11/30 10:52:46;;;;;;;6.97;2.63;;;8.00;99.90;;;;;;4856584;29;20044;-73
2022/11/30 10:55:16;;;;;;;3.60;2.42;;;8.00;99.90;;;;;;4857000;29;20046;-72
2022/11/30 10:57:44;;;;;;;8.55;3.80;;;8.00;99.90;;;;;;4857352;29;20508;-72
2022/11/30 11:00:16;;;;;;;7.50;3.30;;;8.10;99.90;;;;;;4885054;29;20039;-72
2022/11/30 11:02:47;;;;;;;17.95;6.22;;;8.10;99.90;;;;;;4931830;29;20102;-71
2022/11/30 11:05:18;;;;;;;8.70;3.70;;;8.10;99.90;;;;;;4931522;29;20046;-73
2022/11/30 11:07:51;;;;;;;5.45;2.70;;;8.20;99.90;;;;;;4951358;28;20054;-73
2022/11/30 11:10:20;;;;;;;3.22;1.80;;;8.10;99.90;;;;;;4971915;28;20106;-73
2022/11/30 11:12:49;;;;;;;6.13;2.47;;;8.30;99.90;;;;;;4971897;28;20026;-72
2022/11/30 11:15:27;;;;;;;7.15;3.90;;;8.50;99.90;;;;;;4972710;28;20101;-75
2022/11/30 11:18:11;;;;;;;4.10;2.38;;;8.60;99.90;;;;;;4973100;28;20023;-73
2022/11/30 11:20:42;;;;;;;6.22;2.85;;;8.60;99.90;;;;;;4971657;28;20029;-73
2022/11/30 11:23:28;;;;;;;8.10;3.38;;;8.60;99.90;;;;;;4960082;28;20047;-75
2022/11/30 11:25:55;;;;;;;6.30;3.20;;;8.70;99.90;;;;;;4969536;28;20081;-73
2022/11/30 11:28:23;;;;;;;5.82;3.20;;;8.70;99.90;;;;;;4960061;28;20038;-73
2022/11/30 11:30:55;;;;;;;10.00;3.03;;;8.70;99.90;;;;;;4966125;28;20026;-73
2022/11/30 11:33:24;;;;;;;10.48;5.07;;;8.70;99.90;;;;;;4971488;28;20034;-72
2022/11/30 11:36:05;;;;;;;16.27;4.78;;;8.70;99.90;;;;;;4968638;28;20038;-72
2022/11/30 11:38:41;;;;;;;12.93;5.50;;;8.80;99.90;;;;;;4968164;28;20097;-72
2022/11/30 11:41:30;;;;;;;11.05;3.50;;;8.70;99.90;;;;;;4962201;28;20063;-74
2022/11/30 11:44:20;;;;;;;5.88;2.65;;;8.60;99.90;;;;;;4971949;28;20030;-74
2022/11/30 11:47:05;;;;;;;10.35;4.20;;;8.80;99.90;;;;;;4971964;28;20493;-73
2022/11/30 11:49:35;;;;;;;11.20;4.18;;;8.80;99.90;;;;;;4971859;28;20033;-73
2022/11/30 11:52:14;;;;;;;3.72;2.20;;;8.70;99.90;;;;;;4971313;28;20035;-73
2022/11/30 11:54:41;;;;;;;5.43;2.10;;;8.70;99.90;;;;;;4969406;28;20082;-73
2022/11/30 11:57:16;;;;;;;9.63;3.50;;;8.50;99.90;;;;;;4970352;28;20034;-74
2022/11/30 11:59:47;;;;;;;6.10;2.65;;;8.70;99.90;;;;;;4967913;28;20062;-74
2022/11/30 12:02:39;;;;;;;6.60;3.45;;;8.60;99.90;;;;;;4962216;28;20043;-73
2022/11/30 12:05:17;;;;;;;3.97;2.00;;;8.70;99.90;;;;;;4971508;28;20031;-73
2022/11/30 12:08:06;;;;;;;9.68;3.40;;;8.70;99.90;;;;;;4971803;28;20057;-73
2022/11/30 12:10:40;;;;;;;6.72;3.25;;;8.80;99.90;;;;;;4972120;28;20019;-74
2022/11/30 12:13:20;;;;;;;5.18;2.50;;;8.70;99.90;;;;;;4971472;28;20029;-73
2022/11/30 12:16:10;;;;;;;8.65;3.72;;;8.70;99.90;;;;;;4969687;28;20045;-73
2022/11/30 12:18:59;;;;;;;8.48;4.45;;;8.70;99.90;;;;;;4971152;28;20030;-73
2022/11/30 12:21:48;;;;;;;6.97;3.53;;;8.60;99.90;;;;;;4970247;28;20397;-74
2022/11/30 12:24:23;;;;;;;8.82;3.17;;;8.70;99.90;;;;;;4968968;28;20027;-73
2022/11/30 12:27:31;;;;;;;6.28;2.63;;;8.60;99.90;;;;;;4971122;28;20034;-73
2022/11/30 12:30:17;;;;;;;6.28;3.05;;;8.50;99.90;;;;;;4947172;29;20127;-73
2022/11/30 12:33:19;;;;;;;14.95;6.72;;;8.60;99.90;;;;;;4949605;28;20216;-73
2022/11/30 12:35:50;;;;;;;11.02;4.43;;;8.60;99.90;;;;;;4952516;28;20035;-74
2022/11/30 12:38:24;;;;;;;7.13;3.60;;;8.50;99.90;;;;;;4953211;28;20064;-73
2022/11/30 12:40:56;;;;;;;12.23;5.00;;;8.60;99.90;;;;;;4936880;29;20023;-73
2022/11/30 12:44:03;;;;;;;8.50;3.00;;;8.50;99.90;;;;;;4953051;29;20053;-76
2022/11/30 12:46:37;;;;;;;10.80;3.70;;;8.50;99.90;;;;;;4870951;29;20408;-73
2022/11/30 12:49:22;;;;;;;9.32;4.72;;;8.50;99.90;;;;;;4877732;29;20037;-74
2022/11/30 12:52:12;;;;;;;14.57;7.05;;;8.50;99.90;;;;;;4877414;29;20041;-73
2022/11/30 12:54:44;;;;;;;8.00;3.65;;;8.50;99.90;;;;;;4877774;29;20432;-70
2022/11/30 12:57:33;;;;;;;8.85;3.63;;;8.50;99.90;;;;;;5231687;23;20509;-72
2022/11/30 13:00:16;;;;;;;4.32;2.70;;;8.40;99.90;;;;;;4971811;28;20506;-72
2022/11/30 13:02:50;;;;;;;5.20;2.70;;;8.50;99.90;;;;;;4953535;29;20028;-72
2022/11/30 13:05:23;;;;;;;9.13;3.95;;;8.40;99.90;;;;;;4955824;29;20082;-71
2022/11/30 13:07:57;;;;;;;4.72;2.60;;;8.40;99.90;;;;;;4935078;29;20525;-71